sensor_id;sensor_type;location;lat;lon;timestamp;pressure;altitude;pressure_sealevel;temperature;humidity
61761;BME280;47664;51.660;-0.100;2022-10-15T00:00:12;99979.31;;;13.14;62.70
61761;BME280;47664;51.660;-0.100;2022-10-15T00:02:50;99975.90;;;13.27;62.50
61761;BME280;47664;51.660;-0.100;2022-10-15T00:05:28;99969.22;;;13.05;62.17
61761;BME280;47664;51.660;-0.100;2022-10-15T00:08:05;99966.63;;;12.92;62.81
61761;BME280;47664;51.660;-0.100;2022-10-15T00:10:43;99964.03;;;13.01;62.81
61761;BME280;47664;51.660;-0.100;2022-10-15T00:13:20;99962.46;;;13.11;62.61
61761;BME280;47664;51.660;-0.100;2022-10-15T00:15:58;99958.67;;;13.27;62.26
61761;BME280;47664;51.660;-0.100;2022-10-15T00:18:36;99951.44;;;12.98;62.12
61761;BME280;47664;51.660;-0.100;2022-10-15T00:21:15;99948.84;;;12.81;62.10
61761;BME280;47664;51.660;-0.100;2022-10-15T00:23:53;99945.79;;;13.27;62.19
61761;BME280;47664;51.660;-0.100;2022-10-15T00:26:33;99939.74;;;13.46;61.35
61761;BME280;47664;51.660;-0.100;2022-10-15T00:29:10;99939.85;;;13.36;62.01
61761;BME280;47664;51.660;-0.100;2022-10-15T00:31:47;99933.12;;;12.92;62.52
61761;BME280;47664;51.660;-0.100;2022-10-15T00:34:24;99930.03;;;13.07;62.27
61761;BME280;47664;51.660;-0.100;2022-10-15T00:37:02;99925.23;;;12.73;62.61
61761;BME280;47664;51.660;-0.100;2022-10-15T00:39:39;99921.37;;;12.94;62.35
61761;BME280;47664;51.660;-0.100;2022-10-15T00:42:16;99916.53;;;13.11;62.25
61761;BME280;47664;51.660;-0.100;2022-10-15T00:44:57;99913.32;;;13.17;62.01
61761;BME280;47664;51.660;-0.100;2022-10-15T00:47:40;99906.06;;;13.19;61.55
61761;BME280;47664;51.660;-0.100;2022-10-15T00:50:19;99901.94;;;13.10;61.83
61761;BME280;47664;51.660;-0.100;2022-10-15T00:53:04;99895.91;;;13.06;61.99
61761;BME280;47664;51.660;-0.100;2022-10-15T00:55:44;99891.86;;;12.72;62.72
61761;BME280;47664;51.660;-0.100;2022-10-15T00:58:24;99886.56;;;12.86;63.12
61761;BME280;47664;51.660;-0.100;2022-10-15T01:01:05;99882.13;;;12.92;63.02
61761;BME280;47664;51.660;-0.100;2022-10-15T01:03:42;99875.78;;;12.80;63.33
61761;BME280;47664;51.660;-0.100;2022-10-15T01:06:19;99873.78;;;12.64;63.04
61761;BME280;47664;51.660;-0.100;2022-10-15T01:08:57;99869.83;;;12.84;63.11
61761;BME280;47664;51.660;-0.100;2022-10-15T01:11:41;99864.41;;;12.77;62.56
61761;BME280;47664;51.660;-0.100;2022-10-15T01:14:30;99860.15;;;12.50;63.12
61761;BME280;47664;51.660;-0.100;2022-10-15T01:17:19;99860.34;;;12.39;63.45
61761;BME280;47664;51.660;-0.100;2022-10-15T01:20:18;99855.47;;;12.91;63.20
61761;BME280;47664;51.660;-0.100;2022-10-15T01:23:14;99852.73;;;12.85;63.07
61761;BME280;47664;51.660;-0.100;2022-10-15T01:26:14;99850.18;;;12.33;63.62
61761;BME280;47664;51.660;-0.100;2022-10-15T01:29:13;99848.59;;;12.43;63.93
61761;BME280;47664;51.660;-0.100;2022-10-15T01:32:00;99846.40;;;12.45;63.94
61761;BME280;47664;51.660;-0.100;2022-10-15T01:34:44;99843.81;;;12.49;63.97
61761;BME280;47664;51.660;-0.100;2022-10-15T01:37:26;99841.07;;;12.80;63.16
61761;BME280;47664;51.660;-0.100;2022-10-15T01:40:10;99830.93;;;12.82;62.60
61761;BME280;47664;51.660;-0.100;2022-10-15T01:42:56;99823.26;;;12.77;62.57
61761;BME280;47664;51.660;-0.100;2022-10-15T01:45:37;99816.62;;;12.83;62.40
61761;BME280;47664;51.660;-0.100;2022-10-15T01:48:17;99815.99;;;12.64;62.02
61761;BME280;47664;51.660;-0.100;2022-10-15T01:50:58;99810.16;;;12.64;61.71
61761;BME280;47664;51.660;-0.100;2022-10-15T01:53:37;99797.72;;;13.01;60.70
61761;BME280;47664;51.660;-0.100;2022-10-15T01:56:19;99791.06;;;13.12;60.85
61761;BME280;47664;51.660;-0.100;2022-10-15T01:58:58;99792.88;;;13.15;60.78
61761;BME280;47664;51.660;-0.100;2022-10-15T02:01:36;99792.10;;;13.08;60.79
61761;BME280;47664;51.660;-0.100;2022-10-15T02:04:22;99784.70;;;12.82;60.84
61761;BME280;47664;51.660;-0.100;2022-10-15T02:07:04;99782.16;;;12.98;60.74
61761;BME280;47664;51.660;-0.100;2022-10-15T02:09:49;99778.38;;;12.89;60.76
61761;BME280;47664;51.660;-0.100;2022-10-15T02:12:37;99767.70;;;13.08;59.93
61761;BME280;47664;51.660;-0.100;2022-10-15T02:15:22;99766.41;;;12.77;60.76
61761;BME280;47664;51.660;-0.100;2022-10-15T02:18:04;99758.54;;;12.97;60.22
61761;BME280;47664;51.660;-0.100;2022-10-15T02:20:50;99752.45;;;12.57;60.16
61761;BME280;47664;51.660;-0.100;2022-10-15T02:23:30;99746.43;;;12.71;60.12
61761;BME280;47664;51.660;-0.100;2022-10-15T02:26:11;99730.90;;;13.05;59.57
61761;BME280;47664;51.660;-0.100;2022-10-15T02:28:55;99732.19;;;12.43;60.71
61761;BME280;47664;51.660;-0.100;2022-10-15T02:31:35;99728.51;;;12.44;60.93
61761;BME280;47664;51.660;-0.100;2022-10-15T02:34:18;99724.96;;;12.82;60.55
61761;BME280;47664;51.660;-0.100;2022-10-15T02:36:57;99722.74;;;12.66;60.57
61761;BME280;47664;51.660;-0.100;2022-10-15T02:39:38;99720.42;;;12.43;61.51
61761;BME280;47664;51.660;-0.100;2022-10-15T02:42:15;99720.85;;;12.61;61.39
61761;BME280;47664;51.660;-0.100;2022-10-15T02:44:53;99719.91;;;12.51;61.79
61761;BME280;47664;51.660;-0.100;2022-10-15T02:47:31;99719.85;;;12.30;61.79
61761;BME280;47664;51.660;-0.100;2022-10-15T02:50:08;99721.82;;;12.14;61.83
61761;BME280;47664;51.660;-0.100;2022-10-15T02:52:46;99722.36;;;12.05;61.30
61761;BME280;47664;51.660;-0.100;2022-10-15T02:55:23;99714.46;;;12.27;61.32
61761;BME280;47664;51.660;-0.100;2022-10-15T02:58:01;99705.70;;;12.38;61.33
61761;BME280;47664;51.660;-0.100;2022-10-15T03:00:38;99706.20;;;12.51;60.82
61761;BME280;47664;51.660;-0.100;2022-10-15T03:03:15;99706.02;;;12.31;60.70
61761;BME280;47664;51.660;-0.100;2022-10-15T03:05:53;99701.74;;;12.37;60.82
61761;BME280;47664;51.660;-0.100;2022-10-15T03:08:30;99700.30;;;12.32;60.24
61761;BME280;47664;51.660;-0.100;2022-10-15T03:11:08;99699.23;;;12.37;60.55
61761;BME280;47664;51.660;-0.100;2022-10-15T03:13:45;99700.32;;;11.98;61.12
61761;BME280;47664;51.660;-0.100;2022-10-15T03:16:22;99702.03;;;12.43;60.87
61761;BME280;47664;51.660;-0.100;2022-10-15T03:18:59;99702.83;;;12.52;60.35
61761;BME280;47664;51.660;-0.100;2022-10-15T03:21:37;99702.95;;;11.91;61.23
61761;BME280;47664;51.660;-0.100;2022-10-15T03:24:14;99697.82;;;12.23;60.08
61761;BME280;47664;51.660;-0.100;2022-10-15T03:26:51;99703.25;;;12.17;59.47
61761;BME280;47664;51.660;-0.100;2022-10-15T03:29:28;99699.04;;;12.15;60.28
61761;BME280;47664;51.660;-0.100;2022-10-15T03:32:05;99699.61;;;11.87;60.31
61761;BME280;47664;51.660;-0.100;2022-10-15T03:34:42;99696.32;;;12.40;59.59
61761;BME280;47664;51.660;-0.100;2022-10-15T03:37:20;99692.88;;;11.93;60.21
61761;BME280;47664;51.660;-0.100;2022-10-15T03:39:57;99687.61;;;11.86;60.42
61761;BME280;47664;51.660;-0.100;2022-10-15T03:42:34;99678.22;;;11.83;60.80
61761;BME280;47664;51.660;-0.100;2022-10-15T03:45:13;99675.97;;;11.44;62.02
61761;BME280;47664;51.660;-0.100;2022-10-15T03:47:51;99677.26;;;11.47;62.96
61761;BME280;47664;51.660;-0.100;2022-10-15T03:50:29;99678.05;;;11.64;62.77
61761;BME280;47664;51.660;-0.100;2022-10-15T03:53:07;99675.82;;;10.94;63.65
61761;BME280;47664;51.660;-0.100;2022-10-15T03:55:44;99671.46;;;11.64;63.06
61761;BME280;47664;51.660;-0.100;2022-10-15T03:58:21;99670.76;;;11.96;62.41
61761;BME280;47664;51.660;-0.100;2022-10-15T04:00:59;99669.06;;;11.97;61.61
61761;BME280;47664;51.660;-0.100;2022-10-15T04:03:36;99662.72;;;12.06;60.95
61761;BME280;47664;51.660;-0.100;2022-10-15T04:06:13;99650.49;;;11.80;61.31
61761;BME280;47664;51.660;-0.100;2022-10-15T04:08:50;99643.84;;;11.14;62.92
61761;BME280;47664;51.660;-0.100;2022-10-15T04:11:28;99642.19;;;11.42;63.13
61761;BME280;47664;51.660;-0.100;2022-10-15T04:14:05;99640.67;;;11.39;63.33
61761;BME280;47664;51.660;-0.100;2022-10-15T04:16:43;99633.17;;;10.66;64.05
61761;BME280;47664;51.660;-0.100;2022-10-15T04:19:20;99630.24;;;11.11;63.27
61761;BME280;47664;51.660;-0.100;2022-10-15T04:21:56;99626.08;;;10.95;63.12
61761;BME280;47664;51.660;-0.100;2022-10-15T04:24:34;99628.01;;;11.72;62.75
61761;BME280;47664;51.660;-0.100;2022-10-15T04:27:12;99629.65;;;11.05;62.40
61761;BME280;47664;51.660;-0.100;2022-10-15T04:29:51;99627.75;;;11.06;62.83
61761;BME280;47664;51.660;-0.100;2022-10-15T04:32:28;99630.05;;;11.22;62.97
61761;BME280;47664;51.660;-0.100;2022-10-15T04:35:06;99627.24;;;11.40;61.59
61761;BME280;47664;51.660;-0.100;2022-10-15T04:37:43;99619.24;;;11.55;61.00
61761;BME280;47664;51.660;-0.100;2022-10-15T04:40:20;99616.84;;;11.34;61.04
61761;BME280;47664;51.660;-0.100;2022-10-15T04:42:58;99616.38;;;11.53;60.76
61761;BME280;47664;51.660;-0.100;2022-10-15T04:45:35;99615.14;;;11.86;59.90
61761;BME280;47664;51.660;-0.100;2022-10-15T04:48:12;99614.38;;;11.70;60.05
61761;BME280;47664;51.660;-0.100;2022-10-15T04:50:49;99608.41;;;11.60;60.35
61761;BME280;47664;51.660;-0.100;2022-10-15T04:53:27;99608.64;;;11.56;60.59
61761;BME280;47664;51.660;-0.100;2022-10-15T04:56:06;99605.64;;;11.69;60.32
61761;BME280;47664;51.660;-0.100;2022-10-15T04:58:44;99599.65;;;11.22;61.32
61761;BME280;47664;51.660;-0.100;2022-10-15T05:01:23;99597.04;;;10.98;62.11
61761;BME280;47664;51.660;-0.100;2022-10-15T05:04:00;99600.38;;;11.40;61.88
61761;BME280;47664;51.660;-0.100;2022-10-15T05:06:38;99606.09;;;11.22;61.78
61761;BME280;47664;51.660;-0.100;2022-10-15T05:09:15;99605.37;;;11.49;61.25
61761;BME280;47664;51.660;-0.100;2022-10-15T05:11:53;99600.41;;;11.68;60.87
61761;BME280;47664;51.660;-0.100;2022-10-15T05:14:30;99599.17;;;11.23;62.15
61761;BME280;47664;51.660;-0.100;2022-10-15T05:17:07;99599.03;;;11.32;62.28
61761;BME280;47664;51.660;-0.100;2022-10-15T05:19:45;99595.23;;;11.42;62.30
61761;BME280;47664;51.660;-0.100;2022-10-15T05:22:22;99591.19;;;11.51;62.80
61761;BME280;47664;51.660;-0.100;2022-10-15T05:24:59;99595.60;;;11.26;62.83
61761;BME280;47664;51.660;-0.100;2022-10-15T05:27:36;99594.46;;;11.47;62.41
61761;BME280;47664;51.660;-0.100;2022-10-15T05:30:14;99591.58;;;11.50;62.18
61761;BME280;47664;51.660;-0.100;2022-10-15T05:32:55;99591.39;;;11.49;62.28
61761;BME280;47664;51.660;-0.100;2022-10-15T05:35:33;99592.94;;;11.57;62.74
61761;BME280;47664;51.660;-0.100;2022-10-15T05:38:10;99593.21;;;11.39;62.66
61761;BME280;47664;51.660;-0.100;2022-10-15T05:40:52;99590.15;;;11.37;62.63
61761;BME280;47664;51.660;-0.100;2022-10-15T05:43:29;99589.80;;;11.11;62.96
61761;BME280;47664;51.660;-0.100;2022-10-15T05:46:07;99588.22;;;11.35;62.83
61761;BME280;47664;51.660;-0.100;2022-10-15T05:48:46;99592.88;;;11.39;62.60
61761;BME280;47664;51.660;-0.100;2022-10-15T05:51:25;99592.08;;;11.43;62.72
61761;BME280;47664;51.660;-0.100;2022-10-15T05:54:03;99591.48;;;11.30;63.13
61761;BME280;47664;51.660;-0.100;2022-10-15T05:56:40;99588.41;;;11.53;62.90
61761;BME280;47664;51.660;-0.100;2022-10-15T05:59:17;99588.01;;;11.54;62.67
61761;BME280;47664;51.660;-0.100;2022-10-15T06:01:55;99586.52;;;11.69;62.88
61761;BME280;47664;51.660;-0.100;2022-10-15T06:04:32;99585.05;;;11.38;63.10
61761;BME280;47664;51.660;-0.100;2022-10-15T06:07:09;99584.13;;;11.38;62.86
61761;BME280;47664;51.660;-0.100;2022-10-15T06:09:46;99581.92;;;11.29;63.49
61761;BME280;47664;51.660;-0.100;2022-10-15T06:12:23;99585.86;;;11.33;63.35
61761;BME280;47664;51.660;-0.100;2022-10-15T06:15:00;99584.58;;;11.38;63.38
61761;BME280;47664;51.660;-0.100;2022-10-15T06:17:38;99589.97;;;11.47;63.16
61761;BME280;47664;51.660;-0.100;2022-10-15T06:20:16;99589.07;;;11.25;63.81
61761;BME280;47664;51.660;-0.100;2022-10-15T06:22:56;99585.27;;;11.20;63.94
61761;BME280;47664;51.660;-0.100;2022-10-15T06:25:33;99580.50;;;11.65;63.60
61761;BME280;47664;51.660;-0.100;2022-10-15T06:28:11;99581.93;;;11.29;63.59
61761;BME280;47664;51.660;-0.100;2022-10-15T06:30:49;99585.53;;;11.21;63.32
61761;BME280;47664;51.660;-0.100;2022-10-15T06:33:26;99580.43;;;11.37;64.14
61761;BME280;47664;51.660;-0.100;2022-10-15T06:36:06;99585.39;;;11.47;63.51
61761;BME280;47664;51.660;-0.100;2022-10-15T06:38:45;99586.99;;;11.59;63.21
61761;BME280;47664;51.660;-0.100;2022-10-15T06:41:23;99591.28;;;11.75;62.89
61761;BME280;47664;51.660;-0.100;2022-10-15T06:44:00;99592.42;;;11.92;62.65
61761;BME280;47664;51.660;-0.100;2022-10-15T06:46:37;99591.18;;;12.27;63.12
61761;BME280;47664;51.660;-0.100;2022-10-15T06:49:15;99587.96;;;11.85;63.34
61761;BME280;47664;51.660;-0.100;2022-10-15T06:51:51;99586.11;;;11.66;63.67
61761;BME280;47664;51.660;-0.100;2022-10-15T06:54:29;99582.17;;;11.81;63.38
61761;BME280;47664;51.660;-0.100;2022-10-15T06:57:06;99575.94;;;11.90;63.27
61761;BME280;47664;51.660;-0.100;2022-10-15T06:59:43;99578.60;;;11.40;64.39
61761;BME280;47664;51.660;-0.100;2022-10-15T07:02:20;99576.77;;;11.51;64.32
61761;BME280;47664;51.660;-0.100;2022-10-15T07:04:57;99576.28;;;11.78;63.97
61761;BME280;47664;51.660;-0.100;2022-10-15T07:07:34;99575.41;;;11.78;64.04
61761;BME280;47664;51.660;-0.100;2022-10-15T07:10:11;99584.67;;;11.59;64.54
61761;BME280;47664;51.660;-0.100;2022-10-15T07:12:48;99592.12;;;11.60;65.07
61761;BME280;47664;51.660;-0.100;2022-10-15T07:15:26;99594.22;;;11.43;65.30
61761;BME280;47664;51.660;-0.100;2022-10-15T07:18:04;99590.83;;;11.58;65.35
61761;BME280;47664;51.660;-0.100;2022-10-15T07:20:41;99590.39;;;11.15;66.48
61761;BME280;47664;51.660;-0.100;2022-10-15T07:23:18;99588.59;;;11.60;65.96
61761;BME280;47664;51.660;-0.100;2022-10-15T07:25:56;99590.72;;;11.22;66.81
61761;BME280;47664;51.660;-0.100;2022-10-15T07:28:34;99588.00;;;11.76;66.95
61761;BME280;47664;51.660;-0.100;2022-10-15T07:31:11;99588.92;;;11.73;66.82
61761;BME280;47664;51.660;-0.100;2022-10-15T07:33:49;99589.36;;;11.24;66.92
61761;BME280;47664;51.660;-0.100;2022-10-15T07:36:26;99588.80;;;11.40;67.31
61761;BME280;47664;51.660;-0.100;2022-10-15T07:39:03;99591.62;;;11.17;67.98
61761;BME280;47664;51.660;-0.100;2022-10-15T07:41:40;99597.30;;;11.30;68.11
61761;BME280;47664;51.660;-0.100;2022-10-15T07:44:17;99604.99;;;11.47;68.20
61761;BME280;47664;51.660;-0.100;2022-10-15T07:46:54;99610.01;;;10.92;69.68
61761;BME280;47664;51.660;-0.100;2022-10-15T07:49:31;99611.90;;;10.53;70.86
61761;BME280;47664;51.660;-0.100;2022-10-15T07:52:08;99613.59;;;10.86;70.10
61761;BME280;47664;51.660;-0.100;2022-10-15T07:54:46;99619.53;;;10.76;70.30
61761;BME280;47664;51.660;-0.100;2022-10-15T07:57:23;99624.93;;;10.76;70.63
61761;BME280;47664;51.660;-0.100;2022-10-15T08:00:00;99625.91;;;10.92;70.40
61761;BME280;47664;51.660;-0.100;2022-10-15T08:02:38;99624.31;;;11.14;70.34
61761;BME280;47664;51.660;-0.100;2022-10-15T08:05:15;99625.88;;;10.82;70.46
61761;BME280;47664;51.660;-0.100;2022-10-15T08:07:53;99626.83;;;11.30;69.94
61761;BME280;47664;51.660;-0.100;2022-10-15T08:10:30;99627.60;;;11.67;69.25
61761;BME280;47664;51.660;-0.100;2022-10-15T08:13:08;99629.43;;;11.20;70.16
61761;BME280;47664;51.660;-0.100;2022-10-15T08:15:46;99633.61;;;11.44;69.58
61761;BME280;47664;51.660;-0.100;2022-10-15T08:18:23;99635.91;;;11.32;69.97
61761;BME280;47664;51.660;-0.100;2022-10-15T08:21:03;99629.56;;;11.62;69.41
61761;BME280;47664;51.660;-0.100;2022-10-15T08:23:40;99633.55;;;11.74;69.53
61761;BME280;47664;51.660;-0.100;2022-10-15T08:26:18;99635.00;;;11.65;69.78
61761;BME280;47664;51.660;-0.100;2022-10-15T08:28:55;99637.65;;;11.59;69.42
61761;BME280;47664;51.660;-0.100;2022-10-15T08:31:32;99641.10;;;11.69;70.10
61761;BME280;47664;51.660;-0.100;2022-10-15T08:34:10;99641.24;;;11.79;69.64
61761;BME280;47664;51.660;-0.100;2022-10-15T08:36:48;99640.25;;;11.61;68.95
61761;BME280;47664;51.660;-0.100;2022-10-15T08:39:25;99636.38;;;11.89;68.81
61761;BME280;47664;51.660;-0.100;2022-10-15T08:42:04;99635.81;;;12.09;67.16
61761;BME280;47664;51.660;-0.100;2022-10-15T08:44:45;99637.32;;;12.14;67.30
61761;BME280;47664;51.660;-0.100;2022-10-15T08:47:31;99639.43;;;12.82;65.51
61761;BME280;47664;51.660;-0.100;2022-10-15T08:50:24;99643.56;;;13.24;64.52
61761;BME280;47664;51.660;-0.100;2022-10-15T08:53:03;99637.23;;;13.30;64.26
61761;BME280;47664;51.660;-0.100;2022-10-15T08:55:54;99637.85;;;13.21;63.80
61761;BME280;47664;51.660;-0.100;2022-10-15T08:58:40;99634.97;;;13.09;64.37
61761;BME280;47664;51.660;-0.100;2022-10-15T09:01:26;99638.76;;;13.26;63.66
61761;BME280;47664;51.660;-0.100;2022-10-15T09:04:12;99640.72;;;12.87;64.64
61761;BME280;47664;51.660;-0.100;2022-10-15T09:06:56;99639.29;;;12.67;65.13
61761;BME280;47664;51.660;-0.100;2022-10-15T09:09:42;99638.64;;;12.76;65.85
61761;BME280;47664;51.660;-0.100;2022-10-15T09:12:36;99635.48;;;12.73;64.77
61761;BME280;47664;51.660;-0.100;2022-10-15T09:15:18;99634.78;;;12.58;64.72
61761;BME280;47664;51.660;-0.100;2022-10-15T09:17:58;99631.23;;;12.43;64.27
61761;BME280;47664;51.660;-0.100;2022-10-15T09:20:37;99635.37;;;12.65;64.12
61761;BME280;47664;51.660;-0.100;2022-10-15T09:23:19;99641.14;;;12.88;63.57
61761;BME280;47664;51.660;-0.100;2022-10-15T09:26:01;99645.13;;;13.04;62.92
61761;BME280;47664;51.660;-0.100;2022-10-15T09:28:46;99640.69;;;13.46;62.46
61761;BME280;47664;51.660;-0.100;2022-10-15T09:31:33;99637.51;;;12.68;63.01
61761;BME280;47664;51.660;-0.100;2022-10-15T09:34:18;99643.88;;;12.53;62.77
61761;BME280;47664;51.660;-0.100;2022-10-15T09:37:04;99641.83;;;12.48;62.73
61761;BME280;47664;51.660;-0.100;2022-10-15T09:39:53;99643.96;;;12.71;61.11
61761;BME280;47664;51.660;-0.100;2022-10-15T09:42:34;99639.91;;;13.14;61.24
61761;BME280;47664;51.660;-0.100;2022-10-15T09:45:15;99643.31;;;13.05;60.83
61761;BME280;47664;51.660;-0.100;2022-10-15T09:47:55;99634.36;;;13.31;58.98
61761;BME280;47664;51.660;-0.100;2022-10-15T09:50:39;99643.35;;;13.12;60.35
61761;BME280;47664;51.660;-0.100;2022-10-15T09:53:23;99642.96;;;13.21;60.41
61761;BME280;47664;51.660;-0.100;2022-10-15T09:56:10;99639.26;;;13.01;60.22
61761;BME280;47664;51.660;-0.100;2022-10-15T09:58:54;99636.30;;;13.52;59.22
61761;BME280;47664;51.660;-0.100;2022-10-15T10:01:33;99638.31;;;13.40;58.59
61761;BME280;47664;51.660;-0.100;2022-10-15T10:04:16;99637.95;;;13.29;58.33
61761;BME280;47664;51.660;-0.100;2022-10-15T10:06:56;99645.75;;;13.06;60.07
61761;BME280;47664;51.660;-0.100;2022-10-15T10:09:36;99650.86;;;13.10;58.99
61761;BME280;47664;51.660;-0.100;2022-10-15T10:12:24;99641.67;;;13.27;58.33
61761;BME280;47664;51.660;-0.100;2022-10-15T10:15:04;99657.19;;;13.20;58.43
61761;BME280;47664;51.660;-0.100;2022-10-15T10:17:43;99642.36;;;13.43;57.99
61761;BME280;47664;51.660;-0.100;2022-10-15T10:20:31;99650.16;;;13.29;57.13
61761;BME280;47664;51.660;-0.100;2022-10-15T10:23:28;99647.36;;;13.72;56.68
61761;BME280;47664;51.660;-0.100;2022-10-15T10:26:06;99650.85;;;13.93;56.36
61761;BME280;47664;51.660;-0.100;2022-10-15T10:28:49;99648.12;;;13.82;54.63
61761;BME280;47664;51.660;-0.100;2022-10-15T10:31:32;99636.65;;;13.70;55.88
61761;BME280;47664;51.660;-0.100;2022-10-15T10:34:11;99637.24;;;14.02;54.63
61761;BME280;47664;51.660;-0.100;2022-10-15T10:36:53;99643.12;;;13.70;55.61
61761;BME280;47664;51.660;-0.100;2022-10-15T10:39:31;99641.92;;;13.94;55.88
61761;BME280;47664;51.660;-0.100;2022-10-15T10:42:22;99647.39;;;13.36;56.52
61761;BME280;47664;51.660;-0.100;2022-10-15T10:45:18;99654.39;;;13.80;56.84
61761;BME280;47664;51.660;-0.100;2022-10-15T10:47:56;99660.63;;;14.17;55.33
61761;BME280;47664;51.660;-0.100;2022-10-15T10:50:35;99659.99;;;14.34;55.24
61761;BME280;47664;51.660;-0.100;2022-10-15T10:53:24;99661.19;;;13.94;55.49
61761;BME280;47664;51.660;-0.100;2022-10-15T10:56:02;99666.66;;;14.01;56.25
61761;BME280;47664;51.660;-0.100;2022-10-15T10:58:40;99664.82;;;13.88;56.37
61761;BME280;47664;51.660;-0.100;2022-10-15T11:01:18;99665.22;;;13.95;56.88
61761;BME280;47664;51.660;-0.100;2022-10-15T11:03:55;99663.62;;;13.95;56.39
61761;BME280;47664;51.660;-0.100;2022-10-15T11:06:43;99656.21;;;13.85;57.43
61761;BME280;47664;51.660;-0.100;2022-10-15T11:09:35;99660.79;;;14.10;56.49
61761;BME280;47664;51.660;-0.100;2022-10-15T11:12:34;99657.57;;;14.37;56.94
61761;BME280;47664;51.660;-0.100;2022-10-15T11:15:26;99665.24;;;13.90;56.71
61761;BME280;47664;51.660;-0.100;2022-10-15T11:19:22;99668.00;;;14.46;55.55
61761;BME280;47664;51.660;-0.100;2022-10-15T11:22:19;99659.63;;;14.50;55.32
61761;BME280;47664;51.660;-0.100;2022-10-15T11:25:07;99660.64;;;14.46;55.55
61761;BME280;47664;51.660;-0.100;2022-10-15T11:28:02;99652.56;;;14.09;56.32
61761;BME280;47664;51.660;-0.100;2022-10-15T11:30:48;99658.41;;;14.53;55.18
61761;BME280;47664;51.660;-0.100;2022-10-15T11:33:43;99659.81;;;14.46;54.82
61761;BME280;47664;51.660;-0.100;2022-10-15T11:36:37;99658.31;;;14.47;55.37
61761;BME280;47664;51.660;-0.100;2022-10-15T11:39:30;99655.78;;;14.36;55.98
61761;BME280;47664;51.660;-0.100;2022-10-15T11:42:14;99653.20;;;14.42;56.17
61761;BME280;47664;51.660;-0.100;2022-10-15T11:45:15;99651.26;;;14.16;56.32
61761;BME280;47664;51.660;-0.100;2022-10-15T11:48:03;99655.66;;;14.31;56.81
61761;BME280;47664;51.660;-0.100;2022-10-15T11:50:46;99646.49;;;14.97;56.57
61761;BME280;47664;51.660;-0.100;2022-10-15T11:54:12;99647.78;;;14.55;55.91
61761;BME280;47664;51.660;-0.100;2022-10-15T11:56:57;99655.81;;;14.61;55.79
61761;BME280;47664;51.660;-0.100;2022-10-15T11:59:42;99647.62;;;14.69;56.03
61761;BME280;47664;51.660;-0.100;2022-10-15T12:02:23;99657.01;;;14.48;57.53
61761;BME280;47664;51.660;-0.100;2022-10-15T12:05:06;99653.28;;;14.85;55.80
61761;BME280;47664;51.660;-0.100;2022-10-15T12:07:47;99650.74;;;14.37;57.17
61761;BME280;47664;51.660;-0.100;2022-10-15T12:10:38;99637.28;;;14.51;56.60
61761;BME280;47664;51.660;-0.100;2022-10-15T12:13:25;99642.33;;;14.51;55.96
61761;BME280;47664;51.660;-0.100;2022-10-15T12:16:13;99639.78;;;14.78;55.76
61761;BME280;47664;51.660;-0.100;2022-10-15T12:18:59;99632.14;;;15.10;53.17
61761;BME280;47664;51.660;-0.100;2022-10-15T12:21:43;99628.50;;;15.05;53.52
61761;BME280;47664;51.660;-0.100;2022-10-15T12:24:54;99628.04;;;14.70;54.01
61761;BME280;47664;51.660;-0.100;2022-10-15T12:27:34;99632.01;;;14.79;54.52
61761;BME280;47664;51.660;-0.100;2022-10-15T12:30:25;99624.71;;;14.68;54.66
61761;BME280;47664;51.660;-0.100;2022-10-15T12:33:15;99620.16;;;15.23;53.80
61761;BME280;47664;51.660;-0.100;2022-10-15T12:35:59;99621.38;;;15.32;53.45
61761;BME280;47664;51.660;-0.100;2022-10-15T12:38:39;99627.38;;;15.34;52.33
61761;BME280;47664;51.660;-0.100;2022-10-15T12:41:18;99629.36;;;15.59;51.55
61761;BME280;47664;51.660;-0.100;2022-10-15T12:44:03;99623.03;;;15.16;51.93
61761;BME280;47664;51.660;-0.100;2022-10-15T12:46:42;99616.58;;;15.43;51.75
61761;BME280;47664;51.660;-0.100;2022-10-15T12:50:04;99613.44;;;15.65;52.45
61761;BME280;47664;51.660;-0.100;2022-10-15T12:52:59;99611.29;;;15.52;51.74
61761;BME280;47664;51.660;-0.100;2022-10-15T12:55:39;99607.69;;;15.35;52.95
61761;BME280;47664;51.660;-0.100;2022-10-15T12:58:36;99611.77;;;15.26;52.88
61761;BME280;47664;51.660;-0.100;2022-10-15T13:01:48;99610.31;;;15.49;52.33
61761;BME280;47664;51.660;-0.100;2022-10-15T13:04:35;99608.84;;;15.67;52.87
61761;BME280;47664;51.660;-0.100;2022-10-15T13:07:16;99606.26;;;14.79;55.49
61761;BME280;47664;51.660;-0.100;2022-10-15T13:09:54;99592.59;;;15.19;54.39
61761;BME280;47664;51.660;-0.100;2022-10-15T13:12:33;99603.52;;;15.09;55.13
61761;BME280;47664;51.660;-0.100;2022-10-15T13:15:12;99600.00;;;15.09;55.41
61761;BME280;47664;51.660;-0.100;2022-10-15T13:17:50;99601.16;;;14.73;55.95
61761;BME280;47664;51.660;-0.100;2022-10-15T13:20:34;99607.32;;;14.95;55.92
61761;BME280;47664;51.660;-0.100;2022-10-15T13:23:16;99610.78;;;14.81;58.95
61761;BME280;47664;51.660;-0.100;2022-10-15T13:26:10;99612.04;;;14.92;60.21
61761;BME280;47664;51.660;-0.100;2022-10-15T13:28:49;99614.17;;;14.52;61.77
61761;BME280;47664;51.660;-0.100;2022-10-15T13:31:27;99621.56;;;14.23;62.86
61761;BME280;47664;51.660;-0.100;2022-10-15T13:34:18;99616.82;;;14.39;62.83
61761;BME280;47664;51.660;-0.100;2022-10-15T13:36:58;99610.86;;;14.63;62.85
61761;BME280;47664;51.660;-0.100;2022-10-15T13:39:37;99607.15;;;14.62;62.58
61761;BME280;47664;51.660;-0.100;2022-10-15T13:42:19;99604.72;;;14.41;63.01
61761;BME280;47664;51.660;-0.100;2022-10-15T13:45:02;99608.04;;;13.99;64.45
61761;BME280;47664;51.660;-0.100;2022-10-15T13:47:45;99602.57;;;13.97;63.37
61761;BME280;47664;51.660;-0.100;2022-10-15T13:50:25;99600.13;;;14.29;62.04
61761;BME280;47664;51.660;-0.100;2022-10-15T13:53:09;99599.22;;;14.41;60.93
61761;BME280;47664;51.660;-0.100;2022-10-15T13:55:50;99593.87;;;14.53;61.48
61761;BME280;47664;51.660;-0.100;2022-10-15T13:58:30;99586.47;;;14.67;59.82
61761;BME280;47664;51.660;-0.100;2022-10-15T14:01:13;99588.14;;;14.72;58.41
61761;BME280;47664;51.660;-0.100;2022-10-15T14:03:51;99576.35;;;14.68;57.20